Clearfield, PA

2:12 PM EDT on May 27, 2015 (GMT -0400)
Clearfield | | Change Station
CLOSE
Current Station
Personal Weather Station
Location: Clearfield, PA
Elevation: 1127 ft
Nearby Weather Stations

Elev 1127 ft 41.02 °N, 78.46 °W | Updated 2 minutes ago

Mostly Cloudy
Mostly Cloudy
78.2 °F
Feels Like 80 °F
N
4.0
Wind Variable Wind from SW
Gusts 4.0 mph

Today
High -- | Low -- °F
--% Chance of Precip.
Yesterday
High -- | Low -- °F
Precip. -- in
5:46 AM 8:35 PM
Waxing Gibbous, 69% visible
Pressure 30.11 in
Visibility 10.0 miles
Clouds Few 2700 ft
Scattered Clouds 3200 ft
Mostly Cloudy 3900 ft
Heat Index 80 °F
Dew Point 66 °F
Humidity 65%
Rainfall 0.02 in
Snow Depth Not available.
UV 3.4 out of 12
Pollen 4.30 out of 12
Air Quality Not available.
Flu Activity Sporadic
METAR KFIG 271754Z AUTO 20007KT 10SM FEW027 SCT032 BKN039 24/17 A3014 RMK AO2 SLP196 60002 T02440167 10244 20194 58009

More Conditions Fewer Conditions

Pressure 30.11 in
Visibility 10.0 miles
Clouds Few 2700 ft
Scattered Clouds 3200 ft
Mostly Cloudy 3900 ft
Heat Index 80 °F
Dew Point 66 °F
Humidity 65%
Rainfall 0.02 in
Snow Depth Not available.
UV 3.4 out of 12
Pollen 4.30 out of 12
Air Quality Not available.
Flu Activity Sporadic
METAR KFIG 271754Z AUTO 20007KT 10SM FEW027 SCT032 BKN039 24/17 A3014 RMK AO2 SLP196 60002 T02440167 10244 20194 58009

More Conditions Fewer Conditions

10-Day Weather Forecast

Almanac

Astronomy

May. 27, 2015 Rise Set
Actual Time
Civil Twilight
Nautical Twilight
Astronomical Twilight
Moon
Length of Visible Light
Length of Day
Tomorrow will be .
, % of the Moon is Illuminated

Today's Extremes

State Highs State Lows

Community

WunderPhotos

Upload Photos

1,824,744 photos uploaded!

WunderBlogs® & News

Nearby

Air Quality

  Air Quality AQ Index Pollutant
Not available.

Snow Depth

Station Depth Elevation

Earthquake Activity

City Distance Mag. Time & Date
Minimum magnitude displayed is 2.5.

Coastal Water Temperatures

Place Temperature

Stations

Nearby Weather Stations

Station Location Temp. Windchill Dew Point Humidity Wind Precip. Elev Updated Type